sensor_id;sensor_type;location;lat;lon;timestamp;temperature;humidity
16511;DHT22;8368;48.772;8.754;2022-11-15T00:01:39;7.90;99.90
16511;DHT22;8368;48.772;8.754;2022-11-15T00:04:06;7.80;99.90
16511;DHT22;8368;48.772;8.754;2022-11-15T00:06:32;7.80;99.90
16511;DHT22;8368;48.772;8.754;2022-11-15T00:08:58;7.80;99.90
16511;DHT22;8368;48.772;8.754;2022-11-15T00:11:25;7.70;99.90
16511;DHT22;8368;48.772;8.754;2022-11-15T00:13:50;7.70;99.90
16511;DHT22;8368;48.772;8.754;2022-11-15T00:16:16;7.70;99.90
16511;DHT22;8368;48.772;8.754;2022-11-15T00:18:42;7.60;99.90
16511;DHT22;8368;48.772;8.754;2022-11-15T00:21:10;7.60;99.90
16511;DHT22;8368;48.772;8.754;2022-11-15T00:23:36;7.60;99.90
16511;DHT22;8368;48.772;8.754;2022-11-15T00:26:02;7.60;99.90
16511;DHT22;8368;48.772;8.754;2022-11-15T00:28:28;7.50;99.90
16511;DHT22;8368;48.772;8.754;2022-11-15T00:31:00;7.50;99.90
16511;DHT22;8368;48.772;8.754;2022-11-15T00:33:26;7.50;99.90
16511;DHT22;8368;48.772;8.754;2022-11-15T00:35:51;7.40;99.90
16511;DHT22;8368;48.772;8.754;2022-11-15T00:38:17;7.40;99.90
16511;DHT22;8368;48.772;8.754;2022-11-15T00:40:42;7.30;99.90
16511;DHT22;8368;48.772;8.754;2022-11-15T00:43:08;7.30;99.90
16511;DHT22;8368;48.772;8.754;2022-11-15T00:45:33;7.20;99.90
16511;DHT22;8368;48.772;8.754;2022-11-15T00:47:59;7.20;99.90
16511;DHT22;8368;48.772;8.754;2022-11-15T00:50:24;7.20;99.90
16511;DHT22;8368;48.772;8.754;2022-11-15T00:52:50;7.10;99.90
16511;DHT22;8368;48.772;8.754;2022-11-15T00:55:17;7.10;99.90
16511;DHT22;8368;48.772;8.754;2022-11-15T00:57:42;7.10;99.90
16511;DHT22;8368;48.772;8.754;2022-11-15T01:00:09;7.10;99.90
16511;DHT22;8368;48.772;8.754;2022-11-15T01:02:34;7.10;99.90
16511;DHT22;8368;48.772;8.754;2022-11-15T01:05:00;7.10;99.90
16511;DHT22;8368;48.772;8.754;2022-11-15T01:07:26;7.10;99.90
16511;DHT22;8368;48.772;8.754;2022-11-15T01:09:51;7.10;99.90
16511;DHT22;8368;48.772;8.754;2022-11-15T01:12:17;7.10;99.90
16511;DHT22;8368;48.772;8.754;2022-11-15T01:14:42;7.20;99.90
16511;DHT22;8368;48.772;8.754;2022-11-15T01:17:08;7.20;99.90
16511;DHT22;8368;48.772;8.754;2022-11-15T01:19:33;7.20;99.90
16511;DHT22;8368;48.772;8.754;2022-11-15T01:21:59;7.30;99.90
16511;DHT22;8368;48.772;8.754;2022-11-15T01:24:25;7.30;99.90
16511;DHT22;8368;48.772;8.754;2022-11-15T01:26:50;7.30;99.90
16511;DHT22;8368;48.772;8.754;2022-11-15T01:29:16;7.40;99.90
16511;DHT22;8368;48.772;8.754;2022-11-15T01:31:41;7.40;99.90
16511;DHT22;8368;48.772;8.754;2022-11-15T01:34:07;7.40;99.90
16511;DHT22;8368;48.772;8.754;2022-11-15T01:36:33;7.50;99.90
16511;DHT22;8368;48.772;8.754;2022-11-15T01:38:59;7.50;99.90
16511;DHT22;8368;48.772;8.754;2022-11-15T01:41:30;7.50;99.90
16511;DHT22;8368;48.772;8.754;2022-11-15T01:44:30;7.50;99.90
16511;DHT22;8368;48.772;8.754;2022-11-15T01:46:46;7.50;99.90
16511;DHT22;8368;48.772;8.754;2022-11-15T01:49:14;7.50;99.90
16511;DHT22;8368;48.772;8.754;2022-11-15T01:51:41;7.50;99.90
16511;DHT22;8368;48.772;8.754;2022-11-15T01:54:10;7.50;99.90
16511;DHT22;8368;48.772;8.754;2022-11-15T01:56:45;7.60;99.90
16511;DHT22;8368;48.772;8.754;2022-11-15T01:59:13;7.60;99.90
16511;DHT22;8368;48.772;8.754;2022-11-15T02:01:39;7.60;99.90
16511;DHT22;8368;48.772;8.754;2022-11-15T02:06:38;7.60;99.90
16511;DHT22;8368;48.772;8.754;2022-11-15T02:09:04;7.60;99.90
16511;DHT22;8368;48.772;8.754;2022-11-15T02:11:30;7.60;99.90
16511;DHT22;8368;48.772;8.754;2022-11-15T02:13:57;7.70;99.90
16511;DHT22;8368;48.772;8.754;2022-11-15T02:16:59;7.70;99.90
16511;DHT22;8368;48.772;8.754;2022-11-15T02:28:10;7.70;99.90
16511;DHT22;8368;48.772;8.754;2022-11-15T02:30:41;7.70;99.90
16511;DHT22;8368;48.772;8.754;2022-11-15T02:33:50;7.60;99.90
16511;DHT22;8368;48.772;8.754;2022-11-15T02:42:17;7.60;99.90
16511;DHT22;8368;48.772;8.754;2022-11-15T02:45:06;7.60;99.90
16511;DHT22;8368;48.772;8.754;2022-11-15T02:47:39;7.70;99.90
16511;DHT22;8368;48.772;8.754;2022-11-15T02:50:18;7.70;99.90
16511;DHT22;8368;48.772;8.754;2022-11-15T02:52:46;7.70;99.90
16511;DHT22;8368;48.772;8.754;2022-11-15T02:55:30;7.70;99.90
16511;DHT22;8368;48.772;8.754;2022-11-15T03:00:48;7.70;99.90
16511;DHT22;8368;48.772;8.754;2022-11-15T03:03:19;7.70;99.90
16511;DHT22;8368;48.772;8.754;2022-11-15T03:05:57;7.60;99.90
16511;DHT22;8368;48.772;8.754;2022-11-15T03:08:57;7.60;99.90
16511;DHT22;8368;48.772;8.754;2022-11-15T03:11:21;7.60;99.90
16511;DHT22;8368;48.772;8.754;2022-11-15T03:16:57;7.50;99.90
16511;DHT22;8368;48.772;8.754;2022-11-15T03:19:28;7.50;99.90
16511;DHT22;8368;48.772;8.754;2022-11-15T03:21:56;7.50;99.90
16511;DHT22;8368;48.772;8.754;2022-11-15T03:24:25;7.50;99.90
16511;DHT22;8368;48.772;8.754;2022-11-15T03:26:53;7.50;99.90
16511;DHT22;8368;48.772;8.754;2022-11-15T03:29:26;7.50;99.90
16511;DHT22;8368;48.772;8.754;2022-11-15T03:32:01;7.50;99.90
16511;DHT22;8368;48.772;8.754;2022-11-15T03:37:01;7.60;99.90
16511;DHT22;8368;48.772;8.754;2022-11-15T03:39:28;7.60;99.90
16511;DHT22;8368;48.772;8.754;2022-11-15T03:44:48;7.60;99.90
16511;DHT22;8368;48.772;8.754;2022-11-15T03:49:55;7.60;99.90
16511;DHT22;8368;48.772;8.754;2022-11-15T03:52:22;7.60;99.90
16511;DHT22;8368;48.772;8.754;2022-11-15T03:54:50;7.70;99.90
16511;DHT22;8368;48.772;8.754;2022-11-15T03:57:16;7.70;99.90
16511;DHT22;8368;48.772;8.754;2022-11-15T03:59:42;7.70;99.90
16511;DHT22;8368;48.772;8.754;2022-11-15T04:02:07;7.70;99.90
16511;DHT22;8368;48.772;8.754;2022-11-15T04:04:33;7.70;99.90
16511;DHT22;8368;48.772;8.754;2022-11-15T04:06:58;7.70;99.90
16511;DHT22;8368;48.772;8.754;2022-11-15T04:09:24;7.70;99.90
16511;DHT22;8368;48.772;8.754;2022-11-15T04:11:49;7.60;99.90
16511;DHT22;8368;48.772;8.754;2022-11-15T04:14:15;7.60;99.90
16511;DHT22;8368;48.772;8.754;2022-11-15T04:16:40;7.60;99.90
16511;DHT22;8368;48.772;8.754;2022-11-15T04:19:06;7.60;99.90
16511;DHT22;8368;48.772;8.754;2022-11-15T04:21:50;7.50;99.90
16511;DHT22;8368;48.772;8.754;2022-11-15T04:24:34;7.50;99.90
16511;DHT22;8368;48.772;8.754;2022-11-15T04:27:00;7.50;99.90
16511;DHT22;8368;48.772;8.754;2022-11-15T04:29:25;7.40;99.90
16511;DHT22;8368;48.772;8.754;2022-11-15T04:32:06;7.40;99.90
16511;DHT22;8368;48.772;8.754;2022-11-15T04:34:32;7.40;99.90
16511;DHT22;8368;48.772;8.754;2022-11-15T04:36:58;7.40;99.90
16511;DHT22;8368;48.772;8.754;2022-11-15T04:39:42;7.40;99.90
16511;DHT22;8368;48.772;8.754;2022-11-15T04:42:09;7.40;99.90
16511;DHT22;8368;48.772;8.754;2022-11-15T04:44:34;7.40;99.90
16511;DHT22;8368;48.772;8.754;2022-11-15T04:47:00;7.40;99.90
16511;DHT22;8368;48.772;8.754;2022-11-15T04:49:26;7.40;99.90
16511;DHT22;8368;48.772;8.754;2022-11-15T04:51:52;7.50;99.90
16511;DHT22;8368;48.772;8.754;2022-11-15T04:54:17;7.50;99.90
16511;DHT22;8368;48.772;8.754;2022-11-15T04:56:43;7.50;99.90
16511;DHT22;8368;48.772;8.754;2022-11-15T04:59:08;7.50;99.90
16511;DHT22;8368;48.772;8.754;2022-11-15T05:01:34;7.50;99.90
16511;DHT22;8368;48.772;8.754;2022-11-15T05:03:59;7.50;99.90
16511;DHT22;8368;48.772;8.754;2022-11-15T05:06:43;7.50;99.90
16511;DHT22;8368;48.772;8.754;2022-11-15T05:09:09;7.50;99.90
16511;DHT22;8368;48.772;8.754;2022-11-15T05:11:35;7.50;99.90
16511;DHT22;8368;48.772;8.754;2022-11-15T05:14:00;7.60;99.90
16511;DHT22;8368;48.772;8.754;2022-11-15T05:16:26;7.60;99.90
16511;DHT22;8368;48.772;8.754;2022-11-15T05:18:53;7.60;99.90
16511;DHT22;8368;48.772;8.754;2022-11-15T05:21:19;7.60;99.90
16511;DHT22;8368;48.772;8.754;2022-11-15T05:23:45;7.60;99.90
16511;DHT22;8368;48.772;8.754;2022-11-15T05:26:10;7.60;99.90
16511;DHT22;8368;48.772;8.754;2022-11-15T05:28:36;7.60;99.90
16511;DHT22;8368;48.772;8.754;2022-11-15T05:31:14;7.60;99.90
16511;DHT22;8368;48.772;8.754;2022-11-15T05:33:41;7.60;99.90
16511;DHT22;8368;48.772;8.754;2022-11-15T05:36:15;7.60;99.90
16511;DHT22;8368;48.772;8.754;2022-11-15T05:38:43;7.60;99.90
16511;DHT22;8368;48.772;8.754;2022-11-15T05:41:09;7.60;99.90
16511;DHT22;8368;48.772;8.754;2022-11-15T05:43:36;7.60;99.90
16511;DHT22;8368;48.772;8.754;2022-11-15T05:46:04;7.70;99.90
16511;DHT22;8368;48.772;8.754;2022-11-15T05:48:30;7.60;99.90
16511;DHT22;8368;48.772;8.754;2022-11-15T05:50:57;7.60;99.90
16511;DHT22;8368;48.772;8.754;2022-11-15T05:53:25;7.60;99.90
16511;DHT22;8368;48.772;8.754;2022-11-15T05:55:51;7.50;99.90
16511;DHT22;8368;48.772;8.754;2022-11-15T05:58:18;7.40;99.90
16511;DHT22;8368;48.772;8.754;2022-11-15T06:00:44;7.40;99.90
16511;DHT22;8368;48.772;8.754;2022-11-15T06:03:10;7.30;99.90
16511;DHT22;8368;48.772;8.754;2022-11-15T06:05:36;7.30;99.90
16511;DHT22;8368;48.772;8.754;2022-11-15T06:08:01;7.30;99.90
16511;DHT22;8368;48.772;8.754;2022-11-15T06:10:27;7.20;99.90
16511;DHT22;8368;48.772;8.754;2022-11-15T06:13:11;7.20;99.90
16511;DHT22;8368;48.772;8.754;2022-11-15T06:15:36;7.20;99.90
16511;DHT22;8368;48.772;8.754;2022-11-15T06:18:02;7.20;99.90
16511;DHT22;8368;48.772;8.754;2022-11-15T06:20:28;7.20;99.90
16511;DHT22;8368;48.772;8.754;2022-11-15T06:23:02;7.20;99.90
16511;DHT22;8368;48.772;8.754;2022-11-15T06:25:28;7.10;99.90
16511;DHT22;8368;48.772;8.754;2022-11-15T06:27:55;7.10;99.90
16511;DHT22;8368;48.772;8.754;2022-11-15T06:30:21;7.20;99.90
16511;DHT22;8368;48.772;8.754;2022-11-15T06:32:47;7.20;99.90
16511;DHT22;8368;48.772;8.754;2022-11-15T06:35:13;7.30;99.90
16511;DHT22;8368;48.772;8.754;2022-11-15T06:37:40;7.20;99.90
16511;DHT22;8368;48.772;8.754;2022-11-15T06:40:07;7.20;99.90
16511;DHT22;8368;48.772;8.754;2022-11-15T06:42:33;7.30;99.90
16511;DHT22;8368;48.772;8.754;2022-11-15T06:44:59;7.30;99.90
16511;DHT22;8368;48.772;8.754;2022-11-15T06:47:24;7.40;99.90
16511;DHT22;8368;48.772;8.754;2022-11-15T06:49:50;7.50;99.90
16511;DHT22;8368;48.772;8.754;2022-11-15T06:52:15;7.50;99.90
16511;DHT22;8368;48.772;8.754;2022-11-15T06:54:43;7.50;99.90
16511;DHT22;8368;48.772;8.754;2022-11-15T06:57:09;7.50;99.90
16511;DHT22;8368;48.772;8.754;2022-11-15T06:59:34;7.50;99.90
16511;DHT22;8368;48.772;8.754;2022-11-15T07:02:00;7.50;99.90
16511;DHT22;8368;48.772;8.754;2022-11-15T07:04:25;7.60;99.90
16511;DHT22;8368;48.772;8.754;2022-11-15T07:06:51;7.60;99.90
16511;DHT22;8368;48.772;8.754;2022-11-15T07:09:16;7.60;99.90
16511;DHT22;8368;48.772;8.754;2022-11-15T07:11:42;7.70;99.90
16511;DHT22;8368;48.772;8.754;2022-11-15T07:14:07;7.80;99.90
16511;DHT22;8368;48.772;8.754;2022-11-15T07:16:33;7.90;99.90
16511;DHT22;8368;48.772;8.754;2022-11-15T07:19:00;8.00;99.90
16511;DHT22;8368;48.772;8.754;2022-11-15T07:21:25;8.10;99.90
16511;DHT22;8368;48.772;8.754;2022-11-15T07:23:51;8.10;99.90
16511;DHT22;8368;48.772;8.754;2022-11-15T07:26:16;8.20;99.90
16511;DHT22;8368;48.772;8.754;2022-11-15T07:28:42;8.30;99.90
16511;DHT22;8368;48.772;8.754;2022-11-15T07:31:08;8.30;99.90
16511;DHT22;8368;48.772;8.754;2022-11-15T07:33:34;8.40;99.90
16511;DHT22;8368;48.772;8.754;2022-11-15T07:36:02;8.40;99.90
16511;DHT22;8368;48.772;8.754;2022-11-15T07:38:29;8.50;99.90
16511;DHT22;8368;48.772;8.754;2022-11-15T07:40:59;8.60;99.90
16511;DHT22;8368;48.772;8.754;2022-11-15T07:43:25;8.60;99.90
16511;DHT22;8368;48.772;8.754;2022-11-15T07:45:53;8.60;99.90
16511;DHT22;8368;48.772;8.754;2022-11-15T07:48:19;8.70;99.90
16511;DHT22;8368;48.772;8.754;2022-11-15T07:50:44;8.70;99.90
16511;DHT22;8368;48.772;8.754;2022-11-15T07:53:10;8.70;99.90
16511;DHT22;8368;48.772;8.754;2022-11-15T07:55:36;8.80;99.90
16511;DHT22;8368;48.772;8.754;2022-11-15T07:58:04;8.80;99.90
16511;DHT22;8368;48.772;8.754;2022-11-15T08:00:30;8.80;99.90
16511;DHT22;8368;48.772;8.754;2022-11-15T08:03:07;8.90;99.90
16511;DHT22;8368;48.772;8.754;2022-11-15T08:05:33;9.10;99.90
16511;DHT22;8368;48.772;8.754;2022-11-15T08:07:59;9.20;99.90
16511;DHT22;8368;48.772;8.754;2022-11-15T08:10:26;9.30;99.90
16511;DHT22;8368;48.772;8.754;2022-11-15T08:13:09;9.30;99.90
16511;DHT22;8368;48.772;8.754;2022-11-15T08:15:35;9.50;99.90
16511;DHT22;8368;48.772;8.754;2022-11-15T08:18:05;9.60;99.90
16511;DHT22;8368;48.772;8.754;2022-11-15T08:20:31;9.70;99.90
16511;DHT22;8368;48.772;8.754;2022-11-15T08:22:59;9.70;99.90
16511;DHT22;8368;48.772;8.754;2022-11-15T08:25:25;9.70;99.90
16511;DHT22;8368;48.772;8.754;2022-11-15T08:27:57;9.70;99.90
16511;DHT22;8368;48.772;8.754;2022-11-15T08:30:23;9.70;99.90
16511;DHT22;8368;48.772;8.754;2022-11-15T08:32:50;9.80;99.90
16511;DHT22;8368;48.772;8.754;2022-11-15T08:35:18;9.90;99.90
16511;DHT22;8368;48.772;8.754;2022-11-15T08:37:44;9.90;99.90
16511;DHT22;8368;48.772;8.754;2022-11-15T08:40:10;9.90;99.90
16511;DHT22;8368;48.772;8.754;2022-11-15T08:42:36;10.00;99.90
16511;DHT22;8368;48.772;8.754;2022-11-15T08:45:03;10.00;99.90
16511;DHT22;8368;48.772;8.754;2022-11-15T08:47:29;10.10;99.90
16511;DHT22;8368;48.772;8.754;2022-11-15T08:49:54;10.10;99.90
16511;DHT22;8368;48.772;8.754;2022-11-15T08:52:20;10.10;99.90
16511;DHT22;8368;48.772;8.754;2022-11-15T08:54:45;10.10;99.90
16511;DHT22;8368;48.772;8.754;2022-11-15T08:57:11;10.10;99.90
16511;DHT22;8368;48.772;8.754;2022-11-15T08:59:37;10.10;99.90
16511;DHT22;8368;48.772;8.754;2022-11-15T09:02:03;10.20;99.90
16511;DHT22;8368;48.772;8.754;2022-11-15T09:04:29;10.20;99.90
16511;DHT22;8368;48.772;8.754;2022-11-15T09:06:54;10.20;99.90
16511;DHT22;8368;48.772;8.754;2022-11-15T09:09:20;10.20;99.90
16511;DHT22;8368;48.772;8.754;2022-11-15T09:11:45;10.30;99.90
16511;DHT22;8368;48.772;8.754;2022-11-15T09:14:12;10.50;99.90
16511;DHT22;8368;48.772;8.754;2022-11-15T09:16:38;10.60;99.90
16511;DHT22;8368;48.772;8.754;2022-11-15T09:19:04;10.70;99.90
16511;DHT22;8368;48.772;8.754;2022-11-15T09:21:30;10.80;99.90
16511;DHT22;8368;48.772;8.754;2022-11-15T09:23:56;10.90;99.90
16511;DHT22;8368;48.772;8.754;2022-11-15T09:26:21;11.00;99.90
16511;DHT22;8368;48.772;8.754;2022-11-15T09:28:47;11.00;99.90
16511;DHT22;8368;48.772;8.754;2022-11-15T09:31:13;11.10;99.90
16511;DHT22;8368;48.772;8.754;2022-11-15T09:33:38;11.10;99.90
16511;DHT22;8368;48.772;8.754;2022-11-15T09:36:07;11.20;99.90
16511;DHT22;8368;48.772;8.754;2022-11-15T09:38:33;11.10;99.90
16511;DHT22;8368;48.772;8.754;2022-11-15T09:41:25;11.20;99.90
16511;DHT22;8368;48.772;8.754;2022-11-15T09:44:35;11.20;99.90
16511;DHT22;8368;48.772;8.754;2022-11-15T09:49:29;11.40;99.90
16511;DHT22;8368;48.772;8.754;2022-11-15T09:51:55;11.40;99.90
16511;DHT22;8368;48.772;8.754;2022-11-15T09:54:38;11.50;99.90
16511;DHT22;8368;48.772;8.754;2022-11-15T09:57:15;11.60;99.90
16511;DHT22;8368;48.772;8.754;2022-11-15T10:03:07;11.70;99.90
16511;DHT22;8368;48.772;8.754;2022-11-15T10:05:47;11.80;99.90
16511;DHT22;8368;48.772;8.754;2022-11-15T10:10:53;11.80;99.90
16511;DHT22;8368;48.772;8.754;2022-11-15T10:13:26;11.90;99.90
16511;DHT22;8368;48.772;8.754;2022-11-15T10:15:54;11.80;99.90
16511;DHT22;8368;48.772;8.754;2022-11-15T10:18:54;11.70;99.90
16511;DHT22;8368;48.772;8.754;2022-11-15T10:21:48;11.60;99.90
16511;DHT22;8368;48.772;8.754;2022-11-15T10:24:25;11.60;99.90
16511;DHT22;8368;48.772;8.754;2022-11-15T10:26:54;11.60;99.90
16511;DHT22;8368;48.772;8.754;2022-11-15T10:29:21;11.70;99.90
16511;DHT22;8368;48.772;8.754;2022-11-15T10:31:47;11.80;99.90
16511;DHT22;8368;48.772;8.754;2022-11-15T10:34:16;11.90;99.90
16511;DHT22;8368;48.772;8.754;2022-11-15T10:39:20;11.80;99.90
16511;DHT22;8368;48.772;8.754;2022-11-15T10:41:45;11.80;99.90
16511;DHT22;8368;48.772;8.754;2022-11-15T10:49:29;11.80;99.90
16511;DHT22;8368;48.772;8.754;2022-11-15T10:54:46;11.80;99.90
16511;DHT22;8368;48.772;8.754;2022-11-15T10:57:30;11.70;99.90
16511;DHT22;8368;48.772;8.754;2022-11-15T11:00:13;11.70;99.90
16511;DHT22;8368;48.772;8.754;2022-11-15T11:03:02;11.70;99.90
16511;DHT22;8368;48.772;8.754;2022-11-15T11:05:39;11.70;99.90
16511;DHT22;8368;48.772;8.754;2022-11-15T11:08:20;11.70;99.90
16511;DHT22;8368;48.772;8.754;2022-11-15T11:10:57;11.80;99.90
16511;DHT22;8368;48.772;8.754;2022-11-15T11:13:29;11.80;99.90
16511;DHT22;8368;48.772;8.754;2022-11-15T11:19:13;11.90;99.90
16511;DHT22;8368;48.772;8.754;2022-11-15T11:24:34;12.10;99.90
16511;DHT22;8368;48.772;8.754;2022-11-15T11:35:17;12.30;99.90
16511;DHT22;8368;48.772;8.754;2022-11-15T11:40:44;12.50;99.90
16511;DHT22;8368;48.772;8.754;2022-11-15T11:43:32;12.50;99.90
16511;DHT22;8368;48.772;8.754;2022-11-15T11:49:08;12.40;99.90
16511;DHT22;8368;48.772;8.754;2022-11-15T11:51:47;12.30;99.90
16511;DHT22;8368;48.772;8.754;2022-11-15T11:55:02;12.30;99.90
16511;DHT22;8368;48.772;8.754;2022-11-15T12:00:12;12.20;99.90
16511;DHT22;8368;48.772;8.754;2022-11-15T12:02:42;12.30;99.90
16511;DHT22;8368;48.772;8.754;2022-11-15T12:05:33;12.20;99.90
16511;DHT22;8368;48.772;8.754;2022-11-15T12:13:30;12.20;99.90
16511;DHT22;8368;48.772;8.754;2022-11-15T12:16:22;12.20;99.90
16511;DHT22;8368;48.772;8.754;2022-11-15T12:18:51;12.10;99.90
16511;DHT22;8368;48.772;8.754;2022-11-15T12:23:54;12.10;99.90
16511;DHT22;8368;48.772;8.754;2022-11-15T12:26:28;12.10;99.90
16511;DHT22;8368;48.772;8.754;2022-11-15T12:28:59;12.10;99.90
16511;DHT22;8368;48.772;8.754;2022-11-15T12:34:44;12.30;99.90
16511;DHT22;8368;48.772;8.754;2022-11-15T12:45:41;12.30;99.90
16511;DHT22;8368;48.772;8.754;2022-11-15T13:06:53;12.50;99.90
16511;DHT22;8368;48.772;8.754;2022-11-15T13:12:07;12.70;99.90
16511;DHT22;8368;48.772;8.754;2022-11-15T13:14:46;12.80;99.90
16511;DHT22;8368;48.772;8.754;2022-11-15T13:17:32;12.70;99.90
16511;DHT22;8368;48.772;8.754;2022-11-15T13:22:44;12.70;99.90
16511;DHT22;8368;48.772;8.754;2022-11-15T13:25:40;12.70;99.90
16511;DHT22;8368;48.772;8.754;2022-11-15T13:31:00;12.60;99.90
16511;DHT22;8368;48.772;8.754;2022-11-15T13:33:37;12.50;99.90
16511;DHT22;8368;48.772;8.754;2022-11-15T13:36:09;12.50;99.90
16511;DHT22;8368;48.772;8.754;2022-11-15T13:38:39;12.50;99.90
16511;DHT22;8368;48.772;8.754;2022-11-15T13:41:20;12.40;99.90
16511;DHT22;8368;48.772;8.754;2022-11-15T13:43:48;12.40;99.90
16511;DHT22;8368;48.772;8.754;2022-11-15T13:48:47;12.30;99.90
16511;DHT22;8368;48.772;8.754;2022-11-15T13:51:40;12.30;99.90
16511;DHT22;8368;48.772;8.754;2022-11-15T13:56:48;12.50;99.90
16511;DHT22;8368;48.772;8.754;2022-11-15T13:59:36;12.50;99.90
16511;DHT22;8368;48.772;8.754;2022-11-15T14:02:16;12.50;99.90
16511;DHT22;8368;48.772;8.754;2022-11-15T14:05:02;12.50;99.90
16511;DHT22;8368;48.772;8.754;2022-11-15T14:07:30;12.40;99.90
16511;DHT22;8368;48.772;8.754;2022-11-15T14:09:56;12.40;99.90
16511;DHT22;8368;48.772;8.754;2022-11-15T14:14:52;12.30;99.90
16511;DHT22;8368;48.772;8.754;2022-11-15T14:19:57;12.20;99.90
16511;DHT22;8368;48.772;8.754;2022-11-15T14:22:24;12.20;99.90
16511;DHT22;8368;48.772;8.754;2022-11-15T14:25:15;12.20;99.90
16511;DHT22;8368;48.772;8.754;2022-11-15T14:27:42;12.20;99.90
16511;DHT22;8368;48.772;8.754;2022-11-15T14:30:17;12.20;99.90
16511;DHT22;8368;48.772;8.754;2022-11-15T14:35:16;12.10;99.90
16511;DHT22;8368;48.772;8.754;2022-11-15T14:37:42;12.00;99.90
16511;DHT22;8368;48.772;8.754;2022-11-15T14:40:11;12.00;99.90
16511;DHT22;8368;48.772;8.754;2022-11-15T14:42:37;12.00;99.90
16511;DHT22;8368;48.772;8.754;2022-11-15T14:45:07;11.90;99.90
16511;DHT22;8368;48.772;8.754;2022-11-15T14:47:34;11.80;99.90
16511;DHT22;8368;48.772;8.754;2022-11-15T14:49:59;11.80;99.90
16511;DHT22;8368;48.772;8.754;2022-11-15T14:52:30;11.70;99.90
16511;DHT22;8368;48.772;8.754;2022-11-15T14:55:00;11.70;99.90
16511;DHT22;8368;48.772;8.754;2022-11-15T14:57:27;11.70;99.90
16511;DHT22;8368;48.772;8.754;2022-11-15T14:59:53;11.70;99.90
16511;DHT22;8368;48.772;8.754;2022-11-15T15:02:22;11.70;99.90
16511;DHT22;8368;48.772;8.754;2022-11-15T15:04:48;11.70;99.90
16511;DHT22;8368;48.772;8.754;2022-11-15T15:07:14;11.70;99.90
16511;DHT22;8368;48.772;8.754;2022-11-15T15:09:39;11.70;99.90
16511;DHT22;8368;48.772;8.754;2022-11-15T15:12:18;11.60;99.90
16511;DHT22;8368;48.772;8.754;2022-11-15T15:14:45;11.50;99.90
16511;DHT22;8368;48.772;8.754;2022-11-15T15:17:11;11.50;99.90
16511;DHT22;8368;48.772;8.754;2022-11-15T15:19:37;11.40;99.90
16511;DHT22;8368;48.772;8.754;2022-11-15T15:22:03;11.30;99.90
16511;DHT22;8368;48.772;8.754;2022-11-15T15:24:29;11.30;99.90
16511;DHT22;8368;48.772;8.754;2022-11-15T15:26:55;11.20;99.90
16511;DHT22;8368;48.772;8.754;2022-11-15T15:29:22;11.20;99.90
16511;DHT22;8368;48.772;8.754;2022-11-15T15:31:47;11.20;99.90
16511;DHT22;8368;48.772;8.754;2022-11-15T15:34:14;11.10;99.90
16511;DHT22;8368;48.772;8.754;2022-11-15T15:36:40;11.10;99.90
16511;DHT22;8368;48.772;8.754;2022-11-15T15:39:09;11.10;99.90
16511;DHT22;8368;48.772;8.754;2022-11-15T15:41:36;11.10;99.90
16511;DHT22;8368;48.772;8.754;2022-11-15T15:44:01;11.00;99.90
16511;DHT22;8368;48.772;8.754;2022-11-15T15:46:27;11.00;99.90
16511;DHT22;8368;48.772;8.754;2022-11-15T15:48:53;11.00;99.90
16511;DHT22;8368;48.772;8.754;2022-11-15T15:51:19;11.00;99.90
16511;DHT22;8368;48.772;8.754;2022-11-15T15:53:44;10.90;99.90
16511;DHT22;8368;48.772;8.754;2022-11-15T15:56:10;11.00;99.90
16511;DHT22;8368;48.772;8.754;2022-11-15T15:58:35;11.00;99.90
16511;DHT22;8368;48.772;8.754;2022-11-15T16:01:01;10.90;99.90
16511;DHT22;8368;48.772;8.754;2022-11-15T16:03:27;10.90;99.90
16511;DHT22;8368;48.772;8.754;2022-11-15T16:05:53;10.90;99.90
16511;DHT22;8368;48.772;8.754;2022-11-15T16:08:23;10.90;99.90
16511;DHT22;8368;48.772;8.754;2022-11-15T16:10:49;10.90;99.90
16511;DHT22;8368;48.772;8.754;2022-11-15T16:13:15;10.90;99.90
16511;DHT22;8368;48.772;8.754;2022-11-15T16:15:42;10.80;99.90
16511;DHT22;8368;48.772;8.754;2022-11-15T16:18:17;10.90;99.90
16511;DHT22;8368;48.772;8.754;2022-11-15T16:20:48;10.80;99.90
16511;DHT22;8368;48.772;8.754;2022-11-15T16:23:21;10.80;99.90
16511;DHT22;8368;48.772;8.754;2022-11-15T16:25:51;10.70;99.90
16511;DHT22;8368;48.772;8.754;2022-11-15T16:28:26;10.70;99.90
16511;DHT22;8368;48.772;8.754;2022-11-15T16:31:20;10.70;99.90
16511;DHT22;8368;48.772;8.754;2022-11-15T16:33:49;10.70;99.90
16511;DHT22;8368;48.772;8.754;2022-11-15T16:38:46;10.70;99.90
16511;DHT22;8368;48.772;8.754;2022-11-15T16:41:12;10.70;99.90
16511;DHT22;8368;48.772;8.754;2022-11-15T16:43:37;10.70;99.90
16511;DHT22;8368;48.772;8.754;2022-11-15T16:46:11;10.80;99.90
16511;DHT22;8368;48.772;8.754;2022-11-15T16:48:37;10.70;99.90
16511;DHT22;8368;48.772;8.754;2022-11-15T16:51:04;10.70;99.90
16511;DHT22;8368;48.772;8.754;2022-11-15T16:53:30;10.70;99.90
16511;DHT22;8368;48.772;8.754;2022-11-15T16:55:56;10.70;99.90
16511;DHT22;8368;48.772;8.754;2022-11-15T16:58:22;10.70;99.90
16511;DHT22;8368;48.772;8.754;2022-11-15T17:00:55;10.70;99.90
16511;DHT22;8368;48.772;8.754;2022-11-15T17:03:22;10.70;99.90
16511;DHT22;8368;48.772;8.754;2022-11-15T17:05:49;10.70;99.90
16511;DHT22;8368;48.772;8.754;2022-11-15T17:08:15;10.70;99.90
16511;DHT22;8368;48.772;8.754;2022-11-15T17:10:40;10.80;99.90
16511;DHT22;8368;48.772;8.754;2022-11-15T17:13:11;10.70;99.90
16511;DHT22;8368;48.772;8.754;2022-11-15T17:15:38;10.70;99.90
16511;DHT22;8368;48.772;8.754;2022-11-15T17:18:04;10.70;99.90
16511;DHT22;8368;48.772;8.754;2022-11-15T17:20:31;10.70;99.90
16511;DHT22;8368;48.772;8.754;2022-11-15T17:22:58;10.70;99.90
16511;DHT22;8368;48.772;8.754;2022-11-15T17:25:23;10.70;99.90
16511;DHT22;8368;48.772;8.754;2022-11-15T17:27:49;10.70;99.90
16511;DHT22;8368;48.772;8.754;2022-11-15T17:30:15;10.70;99.90
16511;DHT22;8368;48.772;8.754;2022-11-15T17:32:41;10.60;99.90
16511;DHT22;8368;48.772;8.754;2022-11-15T17:35:09;10.60;99.90
16511;DHT22;8368;48.772;8.754;2022-11-15T17:37:36;10.60;99.90
16511;DHT22;8368;48.772;8.754;2022-11-15T17:40:01;10.50;99.90
16511;DHT22;8368;48.772;8.754;2022-11-15T17:42:27;10.50;99.90
16511;DHT22;8368;48.772;8.754;2022-11-15T17:44:54;10.50;99.90
16511;DHT22;8368;48.772;8.754;2022-11-15T17:47:22;10.50;99.90
16511;DHT22;8368;48.772;8.754;2022-11-15T17:49:48;10.50;99.90
16511;DHT22;8368;48.772;8.754;2022-11-15T17:52:13;10.50;99.90
16511;DHT22;8368;48.772;8.754;2022-11-15T17:54:39;10.50;99.90
16511;DHT22;8368;48.772;8.754;2022-11-15T17:57:06;10.50;99.90
16511;DHT22;8368;48.772;8.754;2022-11-15T17:59:33;10.50;99.90
16511;DHT22;8368;48.772;8.754;2022-11-15T18:02:00;10.50;99.90
16511;DHT22;8368;48.772;8.754;2022-11-15T18:04:25;10.40;99.90
16511;DHT22;8368;48.772;8.754;2022-11-15T18:06:53;10.50;99.90
16511;DHT22;8368;48.772;8.754;2022-11-15T18:09:19;10.50;99.90
16511;DHT22;8368;48.772;8.754;2022-11-15T18:11:46;10.60;99.90
16511;DHT22;8368;48.772;8.754;2022-11-15T18:14:16;10.50;99.90
16511;DHT22;8368;48.772;8.754;2022-11-15T18:16:42;10.60;99.90
16511;DHT22;8368;48.772;8.754;2022-11-15T18:19:09;10.60;99.90
16511;DHT22;8368;48.772;8.754;2022-11-15T18:21:40;10.60;99.90
16511;DHT22;8368;48.772;8.754;2022-11-15T18:24:31;10.60;99.90